Time;durP1;ratioP1;P1;durP2;ratioP2;P2;SDS_P1;SDS_P2;PMS_P1;PMS_P2;Temp;Humidity;BMP_temperature;BMP_pressure;BME280_temperature;BME280_humidity;BME280_pressure;Samples;Min_cycle;Max_cycle;Signal;HPM_P1;HPM_P2
2022/03/18 00:01:07;;;;;;;25.50;12.50;;;;;;;-0.32;49.28;100330.13;105876;1278;22566;-76
2022/03/18 00:03:34;;;;;;;25.90;11.80;;;;;;;-0.34;49.45;100327.58;105910;1277;25586;-76
2022/03/18 00:06:00;;;;;;;22.80;10.50;;;;;;;-0.36;49.42;100331.52;105702;1278;138454;-76
2022/03/18 00:08:27;;;;;;;23.60;11.40;;;;;;;-0.38;49.28;100330.09;105925;1277;24421;-76
2022/03/18 00:10:58;;;;;;;26.70;11.30;;;;;;;-0.40;49.29;100338.23;105694;1277;138362;-78
2022/03/18 00:13:25;;;;;;;18.90;10.10;;;;;;;-0.41;49.43;100340.81;105729;1278;22584;-76
2022/03/18 00:15:54;;;;;;;21.40;10.80;;;;;;;-0.43;49.47;100338.84;105776;1278;22814;-76
2022/03/18 00:18:23;;;;;;;21.10;10.20;;;;;;;-0.46;49.75;100335.18;105657;1279;137659;-76
2022/03/18 00:20:50;;;;;;;;;;;;;;;-0.48;49.73;100337.65;105733;1277;22582;-76
2022/03/18 00:23:16;;;;;;;21.90;10.10;;;;;;;-0.50;49.90;100339.65;105664;1277;124438;-77
2022/03/18 00:25:43;;;;;;;21.40;10.80;;;;;;;-0.52;50.13;100338.41;105610;1277;22564;-77
2022/03/18 00:28:09;;;;;;;21.60;10.90;;;;;;;-0.55;49.82;100336.67;105835;1278;22541;-75
2022/03/18 00:30:36;;;;;;;27.80;11.70;;;;;;;-0.58;50.14;100331.72;105696;1277;138281;-75
2022/03/18 00:33:06;;;;;;;25.50;11.80;;;;;;;-0.60;50.23;100333.48;105773;1278;25311;-74
2022/03/18 00:35:36;;;;;;;22.10;11.90;;;;;;;-0.61;50.18;100343.05;105875;1278;137894;-75
2022/03/18 00:38:10;;;;;;;18.10;10.20;;;;;;;-0.63;50.53;100345.54;105847;1278;23036;-75
2022/03/18 00:40:37;;;;;;;21.90;11.70;;;;;;;-0.66;50.76;100346.66;105681;1278;138592;-75
2022/03/18 00:43:03;;;;;;;22.70;10.10;;;;;;;-0.68;50.51;100345.96;105859;1277;24435;-75
2022/03/18 00:45:30;;;;;;;22.60;10.90;;;;;;;-0.70;50.46;100348.22;105822;1278;22544;-75
2022/03/18 00:53:28;;;;;;;23.00;10.40;;;;;;;-0.74;50.77;100352.02;105869;1280;137997;-75
2022/03/18 00:55:54;;;;;;;20.90;10.60;;;;;;;-0.77;50.96;100357.92;105683;1280;24305;-76
2022/03/18 00:58:21;;;;;;;21.70;10.60;;;;;;;-0.80;51.02;100359.88;106010;1279;23735;-76
2022/03/18 01:00:47;;;;;;;19.10;9.90;;;;;;;-0.81;50.90;100360.59;106099;1278;137997;-76
2022/03/18 01:03:15;;;;;;;20.20;10.20;;;;;;;-0.83;51.12;100361.98;105864;1278;24453;-76
2022/03/18 01:05:48;;;;;;;16.80;9.30;;;;;;;-0.85;50.93;100360.48;105846;1277;138415;-76
2022/03/18 01:08:14;;;;;;;19.30;9.60;;;;;;;-0.90;51.50;100353.42;105855;1280;24452;-75
2022/03/18 01:10:41;;;;;;;19.20;9.00;;;;;;;-0.90;51.13;100353.77;105844;1278;139576;-75
2022/03/18 01:13:08;;;;;;;18.50;9.20;;;;;;;-0.92;51.33;100349.63;106012;1278;22989;-75
2022/03/18 01:15:34;;;;;;;17.70;9.40;;;;;;;-0.94;51.50;100346.28;105838;1277;24344;-75
2022/03/18 01:18:01;;;;;;;20.80;10.50;;;;;;;-0.96;51.63;100345.85;105901;1277;137709;-75
2022/03/18 01:20:28;;;;;;;19.60;9.50;;;;;;;-0.98;51.55;100346.02;105949;1278;22566;-75
2022/03/18 01:22:55;;;;;;;19.10;9.50;;;;;;;-0.99;51.54;100345.39;105929;1278;137845;-75
2022/03/18 01:25:22;;;;;;;17.70;9.40;;;;;;;-1.01;51.68;100345.70;105991;1277;23167;-75
2022/03/18 01:27:48;;;;;;;19.40;8.60;;;;;;;-1.03;51.68;100344.25;105758;1280;23925;-74
2022/03/18 01:30:30;;;;;;;18.30;9.80;;;;;;;-1.03;51.59;100343.62;105801;1277;138615;-77
2022/03/18 01:33:00;;;;;;;17.90;9.70;;;;;;;-1.05;51.35;100339.11;105940;1277;22576;-75
2022/03/18 01:35:27;;;;;;;18.60;8.70;;;;;;;-1.08;51.57;100335.61;105650;1277;138710;-75
2022/03/18 01:37:54;;;;;;;21.00;9.70;;;;;;;-1.09;51.75;100334.80;105966;1277;25216;-75
2022/03/18 01:40:21;;;;;;;20.90;9.30;;;;;;;-1.11;51.99;100336.23;105904;1277;25269;-75
2022/03/18 01:42:48;;;;;;;18.70;8.90;;;;;;;-1.14;52.05;100339.13;105746;1278;138484;-75
2022/03/18 01:45:14;;;;;;;17.30;10.00;;;;;;;-1.16;52.02;100340.53;105686;1278;22572;-74
2022/03/18 01:47:44;;;;;;;16.10;9.20;;;;;;;-1.19;52.16;100337.55;105827;1278;138514;-74
2022/03/18 01:50:13;;;;;;;16.00;8.80;;;;;;;-1.22;52.50;100336.02;105681;1280;22656;-75
2022/03/18 01:52:41;;;;;;;22.60;10.00;;;;;;;-1.25;52.45;100337.11;105879;1278;137843;-75
2022/03/18 01:55:09;;;;;;;19.70;10.70;;;;;;;-1.27;52.49;100340.32;105912;1278;25512;-75
2022/03/18 01:57:39;;;;;;;17.60;8.90;;;;;;;-1.29;52.57;100341.02;105749;1278;25321;-75
2022/03/18 02:00:06;;;;;;;19.80;9.70;;;;;;;-1.31;52.46;100340.30;105806;1277;138309;-75
2022/03/18 02:02:39;;;;;;;19.00;8.70;;;;;;;-1.34;52.85;100343.18;105980;1277;22799;-75
2022/03/18 02:05:06;;;;;;;21.40;10.20;;;;;;;-1.37;52.92;100340.00;105991;1277;137918;-75
2022/03/18 02:07:34;;;;;;;20.80;10.30;;;;;;;-1.39;53.11;100337.91;105734;1278;25429;-75
2022/03/18 02:10:01;;;;;;;16.80;9.50;;;;;;;-1.42;53.33;100341.52;105878;1278;22513;-75
2022/03/18 02:12:28;;;;;;;18.60;10.20;;;;;;;-1.45;53.39;100339.64;105681;1280;137687;-75
2022/03/18 02:14:55;;;;;;;21.80;9.70;;;;;;;-1.48;53.44;100337.02;105831;1278;25356;-75
2022/03/18 02:17:21;;;;;;;23.00;10.50;;;;;;;-1.51;53.74;100337.23;105725;1278;137598;-75
2022/03/18 02:19:48;;;;;;;21.30;10.60;;;;;;;-1.54;53.81;100340.45;105880;1277;22645;-75
2022/03/18 02:22:21;;;;;;;23.80;11.30;;;;;;;-1.56;53.65;100345.85;105738;1280;22548;-75
2022/03/18 02:24:52;;;;;;;17.80;10.20;;;;;;;-1.59;53.79;100346.92;105898;1277;138264;-75
2022/03/18 02:27:20;;;;;;;20.00;10.10;;;;;;;-1.62;54.13;100350.23;105987;1278;24294;-76
2022/03/18 02:29:49;;;;;;;16.40;9.10;;;;;;;-1.64;54.26;100352.66;105801;1277;139295;-75
2022/03/18 02:32:19;;;;;;;18.10;9.80;;;;;;;-1.66;54.37;100351.29;105806;1277;25494;-75
2022/03/18 02:34:46;;;;;;;20.70;10.20;;;;;;;-1.69;54.58;100353.60;105689;1278;138548;-75
2022/03/18 02:37:12;;;;;;;20.00;10.60;;;;;;;-1.72;54.73;100348.69;105798;1277;25313;-75
2022/03/18 02:39:39;;;;;;;20.50;9.90;;;;;;;-1.75;54.76;100348.52;105736;1278;22990;-75
2022/03/18 02:42:08;;;;;;;19.60;10.20;;;;;;;-1.78;55.15;100348.23;105546;1280;137816;-75
2022/03/18 02:44:35;;;;;;;20.90;10.30;;;;;;;-1.80;55.04;100355.73;105820;1278;22551;-75
2022/03/18 02:47:16;;;;;;;23.90;10.60;;;;;;;-1.83;55.20;100360.80;105672;1277;138494;-75
2022/03/18 02:49:43;;;;;;;17.90;9.70;;;;;;;-1.86;55.04;100367.70;105890;1277;22524;-75
2022/03/18 02:52:09;;;;;;;20.60;10.20;;;;;;;-1.89;55.12;100370.23;105685;1277;22631;-75
2022/03/18 02:54:36;;;;;;;18.10;9.00;;;;;;;-1.92;55.31;100371.73;105729;1277;137817;-75
2022/03/18 02:57:03;;;;;;;19.00;10.00;;;;;;;-1.93;55.45;100376.81;105897;1277;25362;-75
2022/03/18 02:59:30;;;;;;;19.30;10.20;;;;;;;-1.96;55.30;100382.02;105901;1278;138514;-75
2022/03/18 03:01:59;;;;;;;19.10;10.60;;;;;;;-1.97;55.69;100384.73;106146;1277;22566;-74
2022/03/18 03:04:25;;;;;;;18.50;10.50;;;;;;;-1.98;55.58;100387.70;105759;1277;138237;-75
2022/03/18 03:09:37;;;;;;;16.30;9.00;;;;;;;-2.02;55.54;100389.79;105910;1278;24428;-75
2022/03/18 03:12:04;;;;;;;20.50;10.20;;;;;;;-2.04;55.42;100394.73;105540;1280;138183;-75
2022/03/18 03:14:30;;;;;;;16.60;9.60;;;;;;;-2.06;55.67;100391.52;105945;1277;22573;-75
2022/03/18 03:16:57;;;;;;;17.80;9.80;;;;;;;-2.08;55.58;100392.34;105679;1278;139021;-75
2022/03/18 03:19:23;;;;;;;19.60;10.30;;;;;;;-2.09;55.84;100392.61;105789;1277;25883;-76
2022/03/18 03:22:04;;;;;;;18.20;9.60;;;;;;;-2.11;55.56;100393.65;105715;1279;22570;-76
2022/03/18 03:24:30;;;;;;;19.30;9.80;;;;;;;-2.14;56.04;100392.26;105732;1279;138373;-76
2022/03/18 03:26:56;;;;;;;18.20;10.00;;;;;;;-2.16;56.13;100388.50;105832;1278;22544;-76
2022/03/18 03:29:23;;;;;;;18.00;10.10;;;;;;;-2.19;56.15;100387.28;105694;1279;138273;-76
2022/03/18 03:31:49;;;;;;;18.90;10.10;;;;;;;-2.21;56.29;100386.77;105888;1277;22678;-77
2022/03/18 03:34:16;;;;;;;20.70;10.60;;;;;;;-2.23;56.52;100390.81;105779;1280;25385;-74
2022/03/18 03:36:43;;;;;;;18.40;9.40;;;;;;;-2.25;56.37;100390.77;105641;1280;138374;-75
2022/03/18 03:39:09;;;;;;;16.00;8.30;;;;;;;-2.27;56.24;100392.23;105817;1280;25502;-77
2022/03/18 03:41:35;;;;;;;18.70;9.30;;;;;;;-2.29;56.34;100394.09;105616;1280;137982;-76
2022/03/18 03:44:01;;;;;;;16.60;8.40;;;;;;;-2.30;56.31;100397.73;105946;1280;25337;-76
2022/03/18 03:46:28;;;;;;;18.40;9.00;;;;;;;-2.30;56.50;100400.77;105583;1280;138703;-76
2022/03/18 03:48:56;;;;;;;20.40;9.70;;;;;;;-2.31;56.60;100406.38;105844;1279;22544;-76
2022/03/18 03:51:22;;;;;;;15.70;8.90;;;;;;;-2.33;56.76;100410.42;105843;1277;22703;-76
2022/03/18 03:53:49;;;;;;;16.80;9.60;;;;;;;-2.35;57.04;100410.89;105662;1278;137701;-76
2022/03/18 03:56:15;;;;;;;16.60;9.30;;;;;;;-2.37;57.02;100410.36;105843;1278;22549;-77
2022/03/18 03:58:41;;;;;;;14.20;8.30;;;;;;;-2.39;56.95;100412.25;105762;1278;137799;-76
2022/03/18 04:01:08;;;;;;;19.30;9.80;;;;;;;-2.41;57.26;100414.02;105917;1278;22567;-77
2022/03/18 04:03:34;;;;;;;15.70;9.70;;;;;;;-2.43;57.22;100413.98;105836;1278;23073;-77
2022/03/18 04:06:01;;;;;;;22.80;10.00;;;;;;;-2.45;57.46;100411.83;105726;1280;138389;-77
2022/03/18 04:08:29;;;;;;;20.20;9.40;;;;;;;-2.47;57.85;100412.38;105874;1278;24237;-77
2022/03/18 04:10:55;;;;;;;20.50;10.50;;;;;;;-2.49;57.65;100414.28;105768;1278;137974;-77
2022/03/18 04:13:24;;;;;;;19.50;9.80;;;;;;;-2.52;57.67;100418.01;106137;1277;23704;-77
2022/03/18 04:15:50;;;;;;;20.20;10.40;;;;;;;-2.54;58.06;100416.40;105654;1280;23584;-77
2022/03/18 04:18:17;;;;;;;18.80;9.70;;;;;;;-2.55;57.92;100418.98;105467;1278;137863;-77
2022/03/18 04:20:43;;;;;;;19.40;10.40;;;;;;;-2.57;58.03;100419.48;105792;1277;23481;-77
2022/03/18 04:23:09;;;;;;;17.60;9.70;;;;;;;-2.59;58.29;100415.66;105639;1280;138342;-78
2022/03/18 04:25:36;;;;;;;19.90;10.10;;;;;;;-2.60;58.41;100418.13;105782;1280;25271;-78
2022/03/18 04:28:03;;;;;;;17.90;9.90;;;;;;;-2.62;58.27;100420.17;105927;1280;22701;-77
2022/03/18 04:30:29;;;;;;;20.90;9.60;;;;;;;-2.64;58.25;100422.11;105778;1278;137755;-76
2022/03/18 04:32:56;;;;;;;15.80;8.90;;;;;;;-2.66;58.23;100427.91;105858;1277;24758;-77
2022/03/18 04:35:22;;;;;;;17.30;9.50;;;;;;;-2.66;58.58;100431.35;105666;1278;138251;-77
2022/03/18 04:37:49;;;;;;;19.30;9.50;;;;;;;-2.67;58.62;100438.50;105864;1278;23362;-77
2022/03/18 04:40:15;;;;;;;18.00;9.50;;;;;;;-2.68;58.52;100443.20;105856;1278;24702;-76
2022/03/18 04:42:44;;;;;;;17.20;8.90;;;;;;;-2.69;58.80;100439.36;105781;1278;137604;-76
2022/03/18 04:45:11;;;;;;;17.90;9.80;;;;;;;-2.70;58.79;100442.97;105873;1278;25381;-76
2022/03/18 04:47:38;;;;;;;18.40;10.50;;;;;;;-2.70;59.05;100447.26;105541;1278;137700;-76
2022/03/18 04:50:05;;;;;;;20.20;10.20;;;;;;;-2.71;58.98;100451.22;105670;1278;22561;-75
2022/03/18 04:52:32;;;;;;;16.90;9.60;;;;;;;-2.72;59.25;100451.10;105549;1279;138186;-76
2022/03/18 04:54:58;;;;;;;20.00;9.40;;;;;;;-2.73;59.25;100452.11;105527;1280;22540;-76
2022/03/18 04:57:25;;;;;;;22.10;9.40;;;;;;;-2.74;59.38;100448.08;105739;1277;24222;-76
2022/03/18 04:59:52;;;;;;;17.10;9.70;;;;;;;-2.75;59.61;100452.55;105562;1280;137773;-76
2022/03/18 05:02:20;;;;;;;18.90;9.30;;;;;;;-2.74;59.30;100453.23;105905;1278;25337;-76
2022/03/18 05:04:48;;;;;;;16.80;8.40;;;;;;;-2.74;59.46;100461.77;105866;1278;138432;-76
2022/03/18 05:07:15;;;;;;;17.90;8.70;;;;;;;-2.75;59.64;100462.32;105766;1280;22580;-76
2022/03/18 05:09:44;;;;;;;16.10;9.30;;;;;;;-2.73;59.38;100465.79;105799;1280;24273;-76
2022/03/18 05:12:12;;;;;;;20.10;9.50;;;;;;;-2.72;59.57;100466.77;105600;1280;137957;-76
2022/03/18 05:14:39;;;;;;;17.70;8.00;;;;;;;-2.70;59.46;100467.51;105866;1278;22544;-76
2022/03/18 05:17:08;;;;;;;17.20;9.20;;;;;;;-2.69;59.52;100468.31;105659;1278;139252;-76
2022/03/18 05:19:36;;;;;;;18.90;8.80;;;;;;;-2.65;59.74;100470.92;105953;1278;25475;-76
2022/03/18 05:22:04;;;;;;;16.60;8.90;;;;;;;-2.63;59.16;100470.20;105846;1278;22569;-76
2022/03/18 05:24:30;;;;;;;20.70;9.80;;;;;;;-2.59;59.17;100470.45;105665;1280;137969;-76
2022/03/18 05:26:57;;;;;;;19.30;10.20;;;;;;;-2.55;59.18;100475.67;105935;1278;24568;-76
2022/03/18 05:29:27;;;;;;;16.10;8.50;;;;;;;-2.50;59.27;100477.09;105792;1280;137979;-76
2022/03/18 05:31:54;;;;;;;16.90;9.00;;;;;;;-2.46;59.30;100476.09;106066;1280;24416;-76
2022/03/18 05:34:22;;;;;;;17.10;9.10;;;;;;;-2.41;59.36;100472.55;105588;1278;22829;-76
2022/03/18 05:36:48;;;;;;;14.70;8.10;;;;;;;-2.36;59.08;100467.59;105712;1280;140434;-76
2022/03/18 05:39:14;;;;;;;22.10;10.30;;;;;;;-2.31;58.98;100468.78;105765;1280;22571;-75
2022/03/18 05:41:43;;;;;;;16.80;8.60;;;;;;;-2.26;58.78;100472.17;105773;1278;138032;-76
2022/03/18 05:44:10;;;;;;;18.00;9.90;;;;;;;-2.20;58.70;100475.63;105767;1280;22566;-76
2022/03/18 05:46:38;;;;;;;19.20;9.30;;;;;;;-2.15;59.06;100474.86;105713;1280;138133;-76
2022/03/18 05:49:07;;;;;;;20.30;8.60;;;;;;;-2.08;58.91;100474.56;105865;1280;25645;-76
2022/03/18 05:51:34;;;;;;;17.30;9.40;;;;;;;-2.01;58.88;100476.73;105995;1280;25374;-76
2022/03/18 05:54:00;;;;;;;16.90;9.00;;;;;;;-1.95;58.31;100478.06;105625;1280;138117;-75
2022/03/18 05:59:12;;;;;;;17.50;9.40;;;;;;;-1.86;58.03;100476.13;105812;1278;137993;-76
2022/03/18 06:01:39;;;;;;;17.30;9.90;;;;;;;-1.82;58.12;100480.98;105951;1278;25362;-77
2022/03/18 06:04:10;;;;;;;15.70;9.10;;;;;;;-1.77;57.84;100483.14;105806;1280;22677;-77
2022/03/18 06:06:44;;;;;;;21.30;10.30;;;;;;;-1.71;57.94;100484.82;105754;1279;137931;-77
2022/03/18 06:11:56;;;;;;;14.60;9.40;;;;;;;-1.58;57.69;100494.02;105712;1279;137585;-77
2022/03/18 06:14:25;;;;;;;16.30;9.20;;;;;;;-1.52;57.59;100499.23;105927;1280;22560;-76
2022/03/18 06:16:54;;;;;;;17.10;8.30;;;;;;;-1.43;57.48;100504.08;105789;1280;138036;-76
2022/03/18 06:19:23;;;;;;;18.40;10.00;;;;;;;-1.36;57.41;100506.52;105839;1281;22578;-76
2022/03/18 06:21:49;;;;;;;16.80;9.60;;;;;;;-1.28;56.99;100509.67;105623;1281;24300;-77
2022/03/18 06:24:18;;;;;;;19.80;9.80;;;;;;;-1.19;57.11;100509.89;105588;1280;137760;-76
2022/03/18 06:26:45;;;;;;;17.00;10.10;;;;;;;-1.12;56.63;100511.80;105689;1280;24222;-77
2022/03/18 06:29:11;;;;;;;19.60;9.80;;;;;;;-1.04;56.54;100516.92;105565;1280;138297;-76
2022/03/18 06:31:39;;;;;;;18.10;9.30;;;;;;;-0.97;56.09;100518.14;105800;1279;22579;-76
2022/03/18 06:34:07;;;;;;;16.30;9.40;;;;;;;-0.90;55.65;100520.45;105685;1280;25257;-76
2022/03/18 06:36:34;;;;;;;19.10;9.60;;;;;;;-0.84;55.41;100522.11;105752;1280;137449;-76
2022/03/18 06:39:00;;;;;;;15.80;8.60;;;;;;;-0.76;55.34;100524.16;105754;1280;24225;-76
2022/03/18 06:41:26;;;;;;;15.40;8.80;;;;;;;-0.67;55.02;100522.44;105865;1280;137599;-76
2022/03/18 06:43:53;;;;;;;15.50;8.90;;;;;;;-0.60;54.78;100524.70;105717;1280;22597;-76
2022/03/18 06:46:20;;;;;;;14.80;8.90;;;;;;;-0.53;54.44;100529.03;105678;1280;22563;-76
2022/03/18 06:48:46;;;;;;;15.10;8.70;;;;;;;-0.47;54.36;100530.85;105681;1280;137551;-76
2022/03/18 06:51:12;;;;;;;19.10;9.50;;;;;;;-0.40;54.14;100527.77;105911;1280;24266;-74
2022/03/18 06:53:39;;;;;;;16.00;8.90;;;;;;;-0.31;54.27;100533.46;105713;1278;137453;-74
2022/03/18 06:56:05;;;;;;;14.60;8.30;;;;;;;-0.22;54.08;100537.17;105863;1280;22563;-74
2022/03/18 06:58:32;;;;;;;16.90;9.00;;;;;;;-0.13;53.87;100539.52;105885;1280;137832;-75
2022/03/18 07:01:02;;;;;;;16.10;9.50;;;;;;;-0.03;53.44;100543.89;105956;1280;22636;-74
2022/03/18 07:03:38;;;;;;;13.80;8.90;;;;;;;0.06;53.11;100541.36;105919;1278;22723;-75
2022/03/18 07:06:06;;;;;;;13.20;8.00;;;;;;;0.14;53.06;100548.04;105677;1279;137389;-75
2022/03/18 07:08:33;;;;;;;18.60;9.30;;;;;;;0.23;52.96;100545.33;105807;1280;22615;-75
2022/03/18 07:11:02;;;;;;;17.90;9.60;;;;;;;0.31;52.53;100547.71;106125;1279;137598;-75
2022/03/18 07:13:29;;;;;;;16.60;8.90;;;;;;;0.39;52.33;100544.89;106155;1278;23275;-75
2022/03/18 07:17:54;;;;;;;14.90;9.30;;;;;;;0.49;52.39;100543.17;106048;1280;22715;-75
2022/03/18 07:18:43;;;;;;;16.20;9.00;;;;;;;0.59;52.17;100544.30;105788;1280;137251;-75
2022/03/18 07:21:09;;;;;;;18.00;9.70;;;;;;;0.68;52.13;100545.90;106063;1278;25328;-75
2022/03/18 07:23:35;;;;;;;15.50;8.70;;;;;;;0.77;51.97;100544.38;105474;1280;137908;-75
2022/03/18 07:26:02;;;;;;;16.10;8.80;;;;;;;0.85;51.35;100547.83;106190;1280;24206;-77
2022/03/18 07:28:43;;;;;;;16.80;9.40;;;;;;;0.93;51.38;100549.80;106208;1280;137501;-77
2022/03/18 07:31:10;;;;;;;18.70;9.60;;;;;;;1.00;51.15;100554.48;105679;1280;22589;-77
2022/03/18 07:33:36;;;;;;;14.10;7.60;;;;;;;1.10;51.00;100555.39;105984;1277;22534;-77
2022/03/18 07:36:04;;;;;;;15.00;8.90;;;;;;;1.19;50.39;100556.04;105740;1278;137895;-78
2022/03/18 07:38:30;;;;;;;16.70;10.20;;;;;;;1.28;50.31;100555.21;105953;1280;22585;-77
2022/03/18 07:40:57;;;;;;;15.80;9.20;;;;;;;1.38;50.22;100555.09;105736;1280;137782;-77
2022/03/18 07:43:23;;;;;;;15.50;7.70;;;;;;;1.46;49.98;100554.92;105769;1280;25488;-76
2022/03/18 07:45:49;;;;;;;13.50;8.20;;;;;;;1.53;49.55;100558.10;105892;1280;22645;-75
2022/03/18 07:48:16;;;;;;;19.10;10.00;;;;;;;1.59;49.38;100559.68;105601;1280;137424;-77
2022/03/18 07:50:42;;;;;;;17.00;9.60;;;;;;;1.66;49.41;100559.61;105957;1280;24353;-78
2022/03/18 07:53:09;;;;;;;16.30;9.50;;;;;;;1.76;49.34;100560.78;105847;1280;137498;-76
2022/03/18 07:55:37;;;;;;;17.20;9.10;;;;;;;1.84;49.02;100562.85;105852;1278;25336;-74
2022/03/18 07:58:06;;;;;;;16.20;9.50;;;;;;;1.92;48.51;100567.73;105901;1280;22567;-75
2022/03/18 08:00:33;;;;;;;17.80;9.40;;;;;;;1.98;48.42;100570.95;105958;1278;137526;-75
2022/03/18 08:02:59;;;;;;;16.30;9.30;;;;;;;2.05;48.40;100574.09;105900;1278;25219;-74
2022/03/18 08:05:25;;;;;;;16.30;9.10;;;;;;;2.12;48.35;100572.75;105865;1277;137308;-75
2022/03/18 08:07:52;;;;;;;16.40;9.00;;;;;;;2.20;48.30;100570.24;106076;1279;25385;-75
2022/03/18 08:10:19;;;;;;;16.70;8.60;;;;;;;2.27;47.89;100562.77;106002;1279;22557;-74
2022/03/18 08:12:47;;;;;;;15.30;8.50;;;;;;;2.35;47.61;100565.54;105757;1280;137428;-75
2022/03/18 08:15:16;;;;;;;19.10;10.20;;;;;;;2.40;47.44;100566.26;105674;1278;390094;-76
2022/03/18 08:17:43;;;;;;;17.60;9.30;;;;;;;2.47;47.32;100568.52;105965;1278;137685;-75
2022/03/18 08:20:12;;;;;;;15.80;9.50;;;;;;;2.50;46.83;100574.86;106022;1280;22557;-75
2022/03/18 08:22:40;;;;;;;17.20;9.40;;;;;;;2.54;46.90;100575.58;106567;1278;137435;-75
2022/03/18 08:25:08;;;;;;;14.80;8.10;;;;;;;2.60;46.93;100575.52;106343;1278;24228;-75
2022/03/18 08:27:35;;;;;;;15.40;9.30;;;;;;;2.68;46.82;100579.15;106040;1280;22573;-75
2022/03/18 08:30:05;;;;;;;12.70;8.20;;;;;;;2.76;46.53;100583.09;106052;1278;137347;-74
2022/03/18 08:32:32;;;;;;;16.20;8.80;;;;;;;2.82;46.46;100585.77;105985;1278;25375;-76
2022/03/18 08:34:58;;;;;;;16.10;9.40;;;;;;;2.90;46.51;100586.12;106280;1280;137729;-77
2022/03/18 08:40:13;;;;;;;13.60;8.50;;;;;;;3.02;45.70;100590.11;105983;1279;29122;-76
2022/03/18 08:42:40;;;;;;;20.30;9.30;;;;;;;3.07;45.52;100594.54;106485;1280;137470;-76
2022/03/18 08:45:07;;;;;;;16.40;9.30;;;;;;;3.16;45.68;100593.91;106637;1279;22564;-76
2022/03/18 08:47:34;;;;;;;15.30;8.80;;;;;;;3.24;45.30;100596.38;106034;1280;137835;-76
2022/03/18 08:50:00;;;;;;;16.00;10.00;;;;;;;3.30;44.98;100605.13;105866;1281;23947;-76
2022/03/18 08:52:27;;;;;;;15.10;9.40;;;;;;;3.36;44.76;100607.46;105737;1279;137867;-75
2022/03/18 08:54:53;;;;;;;16.10;9.90;;;;;;;3.40;44.39;100607.46;106221;1280;22650;-75
2022/03/18 08:57:19;;;;;;;17.20;9.60;;;;;;;3.46;44.73;100607.25;106575;1280;25280;-75
2022/03/18 08:59:45;;;;;;;15.70;8.80;;;;;;;3.52;44.31;100609.52;106056;1278;137356;-75
2022/03/18 09:02:12;;;;;;;18.20;9.00;;;;;;;3.56;44.49;100613.29;105930;1279;22553;-75
2022/03/18 09:04:38;;;;;;;14.90;8.50;;;;;;;3.62;44.58;100619.02;105912;1279;137936;-75
2022/03/18 09:07:04;;;;;;;16.70;9.50;;;;;;;3.69;44.13;100617.64;106066;1280;24399;-75
2022/03/18 09:09:30;;;;;;;14.90;9.30;;;;;;;3.76;44.03;100621.42;106142;1278;25462;-74
2022/03/18 09:11:57;;;;;;;20.20;9.80;;;;;;;3.86;44.18;100626.42;105930;1280;137635;-74
2022/03/18 09:14:23;;;;;;;15.50;9.60;;;;;;;3.98;44.10;100621.91;106144;1278;24323;-74
2022/03/18 09:16:50;;;;;;;17.90;9.00;;;;;;;4.08;43.58;100621.60;106683;1279;138246;-74
2022/03/18 09:19:16;;;;;;;13.30;8.20;;;;;;;4.15;43.25;100620.91;106587;1280;22604;-74
2022/03/18 09:21:43;;;;;;;15.90;9.90;;;;;;;4.22;43.55;100624.50;106674;1280;22561;-74
2022/03/18 09:24:09;;;;;;;17.70;11.10;;;;;;;4.32;42.89;100626.30;106233;1277;137370;-74
2022/03/18 09:26:37;;;;;;;16.80;9.50;;;;;;;4.39;43.20;100635.34;106135;1277;22544;-74
2022/03/18 09:29:05;;;;;;;16.90;10.10;;;;;;;4.49;43.05;100632.18;106439;1278;137601;-73
2022/03/18 09:31:33;;;;;;;15.60;10.40;;;;;;;4.60;42.67;100634.54;106097;1280;22564;-73
2022/03/18 09:33:59;;;;;;;16.20;9.30;;;;;;;4.67;42.46;100631.83;106494;1277;22760;-74
2022/03/18 09:36:26;;;;;;;16.30;10.40;;;;;;;4.76;42.47;100630.91;106330;1277;137483;-74
2022/03/18 09:38:56;;;;;;;17.00;10.00;;;;;;;4.85;42.50;100630.97;106164;1280;25362;-74
2022/03/18 09:41:32;;;;;;;16.10;9.70;;;;;;;4.96;42.47;100631.11;106149;1278;137444;-73
2022/03/18 09:43:58;;;;;;;18.40;10.40;;;;;;;5.08;42.34;100632.15;106043;1278;24338;-74
2022/03/18 09:46:25;;;;;;;18.20;9.70;;;;;;;5.18;41.90;100633.77;106029;1277;22608;-74
2022/03/18 09:48:52;;;;;;;17.90;9.20;;;;;;;5.25;41.51;100633.41;106108;1277;137544;-74
2022/03/18 09:51:18;;;;;;;15.00;9.30;;;;;;;5.30;41.34;100631.02;106203;1278;24228;-74
2022/03/18 09:53:44;;;;;;;12.90;8.50;;;;;;;5.38;41.58;100636.01;105966;1280;137333;-74
2022/03/18 09:56:11;;;;;;;14.60;9.70;;;;;;;5.48;41.46;100635.67;106377;1277;22675;-74
2022/03/18 09:58:38;;;;;;;14.40;8.90;;;;;;;5.58;41.49;100638.45;106082;1278;137633;-74
2022/03/18 10:01:04;;;;;;;16.70;9.00;;;;;;;5.67;40.94;100644.73;106140;1278;22572;-75
2022/03/18 10:03:39;;;;;;;14.70;8.40;;;;;;;5.74;41.20;100646.34;105932;1277;25327;-74
2022/03/18 10:06:10;;;;;;;19.50;10.90;;;;;;;5.85;41.36;100647.37;105941;1278;137414;-74
2022/03/18 10:08:39;;;;;;;15.30;9.70;;;;;;;5.99;40.87;100646.83;106040;1280;24890;-74
2022/03/18 10:11:26;;;;;;;15.70;8.60;;;;;;;6.11;40.23;100649.95;106089;1280;137981;-75
2022/03/18 10:14:15;;;;;;;15.30;8.80;;;;;;;6.19;39.91;100647.68;105871;1280;22561;-74
2022/03/18 10:16:46;;;;;;;;;;;;;;;6.27;39.75;100645.92;105946;1278;138291;-74
2022/03/18 10:19:25;;;;;;;15.30;8.20;;;;;;;6.32;38.98;100645.02;105965;1278;22548;-75
2022/03/18 10:21:56;;;;;;;12.90;8.30;;;;;;;6.36;38.50;100648.02;105940;1278;22538;-75
2022/03/18 10:24:42;;;;;;;12.80;8.80;;;;;;;6.42;38.74;100647.29;105535;1278;137498;-75
2022/03/18 10:27:20;;;;;;;15.80;7.90;;;;;;;6.54;38.69;100649.20;106028;1278;24225;-75
2022/03/18 10:30:03;;;;;;;14.80;8.00;;;;;;;6.66;38.23;100651.66;105975;1278;137522;-75
2022/03/18 10:32:46;;;;;;;15.60;8.80;;;;;;;6.77;38.53;100650.13;106052;1280;22549;-74
2022/03/18 10:38:45;;;;;;;16.70;9.00;;;;;;;6.97;37.35;100644.54;106029;1280;23337;-74
2022/03/18 10:41:23;;;;;;;15.00;8.50;;;;;;;7.06;37.60;100646.05;105837;1278;137561;-75
2022/03/18 10:44:09;;;;;;;16.00;8.60;;;;;;;7.18;37.35;100643.77;106128;1278;25280;-74
2022/03/18 10:46:53;;;;;;;16.90;8.70;;;;;;;7.31;37.17;100644.52;105888;1278;137557;-74
2022/03/18 10:49:23;;;;;;;12.10;7.90;;;;;;;7.40;36.76;100647.19;105974;1277;22611;-74
2022/03/18 10:51:51;;;;;;;12.10;7.70;;;;;;;7.50;35.83;100643.25;106148;1278;22553;-75
2022/03/18 10:54:24;;;;;;;12.60;7.70;;;;;;;7.57;35.09;100640.10;105938;1279;137817;-74
2022/03/18 10:56:58;;;;;;;14.90;8.00;;;;;;;7.67;35.60;100640.64;106345;1278;24507;-75
2022/03/18 10:59:27;;;;;;;13.40;8.10;;;;;;;7.79;35.63;100640.16;105914;1279;137642;-74
2022/03/18 11:01:56;;;;;;;16.20;8.30;;;;;;;7.89;35.49;100636.48;106327;1277;22556;-75
2022/03/18 11:04:24;;;;;;;23.70;10.80;;;;;;;7.97;35.83;100637.04;105953;1278;25453;-74
2022/03/18 11:12:54;;;;;;;14.60;8.50;;;;;;;8.32;34.05;100638.09;107314;1277;137589;-74
2022/03/18 11:15:21;;;;;;;11.20;7.30;;;;;;;8.38;33.68;100636.36;106223;1277;25264;-74
2022/03/18 11:17:49;;;;;;;11.50;7.10;;;;;;;8.44;33.64;100637.14;106294;1277;137331;-74
2022/03/18 11:20:20;;;;;;;12.90;8.10;;;;;;;8.49;33.48;100633.52;106561;1277;22606;-75
2022/03/18 11:22:50;;;;;;;14.20;8.20;;;;;;;8.53;33.67;100636.42;106598;1277;137894;-74
2022/03/18 11:25:18;;;;;;;12.20;8.10;;;;;;;8.61;33.66;100635.77;106255;1277;22829;-74
2022/03/18 11:27:46;;;;;;;13.40;7.80;;;;;;;8.68;33.45;100636.92;106257;1277;24227;-74
2022/03/18 11:30:25;;;;;;;20.50;10.40;;;;;;;8.70;32.98;100637.83;105962;1277;137314;-74
2022/03/18 11:33:14;;;;;;;13.90;8.20;;;;;;;8.72;32.73;100638.84;106451;1277;22689;-74
2022/03/18 11:35:52;;;;;;;14.50;8.20;;;;;;;8.71;32.64;100634.94;105810;1278;137317;-75
2022/03/18 11:38:30;;;;;;;12.60;7.40;;;;;;;8.74;32.75;100634.15;105896;1277;25253;-75